sensor_id;sensor_type;location;lat;lon;timestamp;P1;durP1;ratioP1;P2;durP2;ratioP2
74267;SDS011;62638;51.362;12.472;2023-05-10T00:00:43;7.23;;;2.70;;
74267;SDS011;62638;51.362;12.472;2023-05-10T00:03:08;2.77;;;1.53;;
74267;SDS011;62638;51.362;12.472;2023-05-10T00:05:33;5.03;;;2.40;;
74267;SDS011;62638;51.362;12.472;2023-05-10T00:07:59;6.00;;;1.73;;
74267;SDS011;62638;51.362;12.472;2023-05-10T00:10:24;3.58;;;1.70;;
74267;SDS011;62638;51.362;12.472;2023-05-10T00:12:49;3.50;;;2.10;;
74267;SDS011;62638;51.362;12.472;2023-05-10T00:15:14;5.73;;;1.87;;
74267;SDS011;62638;51.362;12.472;2023-05-10T00:17:40;3.80;;;2.22;;
74267;SDS011;62638;51.362;12.472;2023-05-10T00:20:05;4.43;;;1.83;;
74267;SDS011;62638;51.362;12.472;2023-05-10T00:22:31;5.25;;;2.08;;
74267;SDS011;62638;51.362;12.472;2023-05-10T00:24:57;2.72;;;1.70;;
74267;SDS011;62638;51.362;12.472;2023-05-10T00:27:23;3.63;;;1.73;;
74267;SDS011;62638;51.362;12.472;2023-05-10T00:29:48;4.20;;;1.87;;
74267;SDS011;62638;51.362;12.472;2023-05-10T00:32:13;4.47;;;2.05;;
74267;SDS011;62638;51.362;12.472;2023-05-10T00:34:39;3.30;;;1.63;;
74267;SDS011;62638;51.362;12.472;2023-05-10T00:37:04;4.18;;;2.17;;
74267;SDS011;62638;51.362;12.472;2023-05-10T00:39:29;3.40;;;2.03;;
74267;SDS011;62638;51.362;12.472;2023-05-10T00:41:55;4.90;;;1.90;;
74267;SDS011;62638;51.362;12.472;2023-05-10T00:44:20;5.00;;;2.50;;
74267;SDS011;62638;51.362;12.472;2023-05-10T00:46:46;2.63;;;1.52;;
74267;SDS011;62638;51.362;12.472;2023-05-10T00:49:11;4.65;;;2.30;;
74267;SDS011;62638;51.362;12.472;2023-05-10T00:51:37;3.83;;;1.75;;
74267;SDS011;62638;51.362;12.472;2023-05-10T00:54:02;4.07;;;1.80;;
74267;SDS011;62638;51.362;12.472;2023-05-10T00:56:27;7.75;;;2.38;;
74267;SDS011;62638;51.362;12.472;2023-05-10T00:58:54;3.97;;;2.28;;
74267;SDS011;62638;51.362;12.472;2023-05-10T01:01:20;2.60;;;1.77;;
74267;SDS011;62638;51.362;12.472;2023-05-10T01:03:46;5.88;;;1.90;;
74267;SDS011;62638;51.362;12.472;2023-05-10T01:06:11;4.95;;;2.28;;
74267;SDS011;62638;51.362;12.472;2023-05-10T01:08:37;3.53;;;1.70;;
74267;SDS011;62638;51.362;12.472;2023-05-10T01:11:03;2.50;;;1.48;;
74267;SDS011;62638;51.362;12.472;2023-05-10T01:13:30;3.70;;;2.13;;
74267;SDS011;62638;51.362;12.472;2023-05-10T01:15:58;4.00;;;1.65;;
74267;SDS011;62638;51.362;12.472;2023-05-10T01:20:56;3.38;;;1.77;;
74267;SDS011;62638;51.362;12.472;2023-05-10T01:23:36;7.13;;;2.53;;
74267;SDS011;62638;51.362;12.472;2023-05-10T01:26:14;5.25;;;1.83;;
74267;SDS011;62638;51.362;12.472;2023-05-10T01:28:58;3.50;;;2.03;;
74267;SDS011;62638;51.362;12.472;2023-05-10T01:31:48;5.53;;;1.77;;
74267;SDS011;62638;51.362;12.472;2023-05-10T01:34:16;5.60;;;1.95;;
74267;SDS011;62638;51.362;12.472;2023-05-10T01:36:48;2.38;;;1.55;;
74267;SDS011;62638;51.362;12.472;2023-05-10T01:39:25;5.78;;;2.28;;
74267;SDS011;62638;51.362;12.472;2023-05-10T01:47:09;4.25;;;1.75;;
74267;SDS011;62638;51.362;12.472;2023-05-10T01:49:40;3.42;;;1.73;;
74267;SDS011;62638;51.362;12.472;2023-05-10T01:52:09;4.68;;;1.70;;
74267;SDS011;62638;51.362;12.472;2023-05-10T01:54:41;4.25;;;2.35;;
74267;SDS011;62638;51.362;12.472;2023-05-10T01:57:09;4.15;;;2.22;;
74267;SDS011;62638;51.362;12.472;2023-05-10T01:59:39;3.92;;;2.15;;
74267;SDS011;62638;51.362;12.472;2023-05-10T02:02:07;4.80;;;1.90;;
74267;SDS011;62638;51.362;12.472;2023-05-10T02:04:36;4.07;;;1.95;;
74267;SDS011;62638;51.362;12.472;2023-05-10T02:07:03;5.05;;;1.90;;
74267;SDS011;62638;51.362;12.472;2023-05-10T02:09:29;4.00;;;1.70;;
74267;SDS011;62638;51.362;12.472;2023-05-10T02:11:58;3.25;;;1.73;;
74267;SDS011;62638;51.362;12.472;2023-05-10T02:14:27;3.65;;;1.83;;
74267;SDS011;62638;51.362;12.472;2023-05-10T02:16:55;6.22;;;2.03;;
74267;SDS011;62638;51.362;12.472;2023-05-10T02:19:22;3.70;;;2.00;;
74267;SDS011;62638;51.362;12.472;2023-05-10T02:21:48;3.60;;;1.52;;
74267;SDS011;62638;51.362;12.472;2023-05-10T02:24:16;3.33;;;1.80;;
74267;SDS011;62638;51.362;12.472;2023-05-10T02:26:42;5.55;;;2.22;;
74267;SDS011;62638;51.362;12.472;2023-05-10T02:29:10;5.43;;;1.88;;
74267;SDS011;62638;51.362;12.472;2023-05-10T02:31:37;4.07;;;1.70;;
74267;SDS011;62638;51.362;12.472;2023-05-10T02:34:03;4.22;;;1.73;;
74267;SDS011;62638;51.362;12.472;2023-05-10T02:36:30;3.58;;;1.77;;
74267;SDS011;62638;51.362;12.472;2023-05-10T02:38:57;4.38;;;1.98;;
74267;SDS011;62638;51.362;12.472;2023-05-10T02:41:23;4.75;;;1.85;;
74267;SDS011;62638;51.362;12.472;2023-05-10T02:43:50;4.13;;;2.08;;
74267;SDS011;62638;51.362;12.472;2023-05-10T02:46:16;3.83;;;1.80;;
74267;SDS011;62638;51.362;12.472;2023-05-10T02:48:42;4.03;;;2.00;;
74267;SDS011;62638;51.362;12.472;2023-05-10T02:51:07;3.87;;;2.10;;
74267;SDS011;62638;51.362;12.472;2023-05-10T02:53:34;4.07;;;1.77;;
74267;SDS011;62638;51.362;12.472;2023-05-10T02:56:04;5.13;;;2.15;;
74267;SDS011;62638;51.362;12.472;2023-05-10T02:58:32;5.55;;;2.30;;
74267;SDS011;62638;51.362;12.472;2023-05-10T03:00:57;4.38;;;1.90;;
74267;SDS011;62638;51.362;12.472;2023-05-10T03:03:22;4.30;;;1.87;;
74267;SDS011;62638;51.362;12.472;2023-05-10T03:05:48;4.82;;;1.75;;
74267;SDS011;62638;51.362;12.472;2023-05-10T03:08:13;5.73;;;1.90;;
74267;SDS011;62638;51.362;12.472;2023-05-10T03:10:41;3.37;;;1.80;;
74267;SDS011;62638;51.362;12.472;2023-05-10T03:13:16;3.42;;;1.95;;
74267;SDS011;62638;51.362;12.472;2023-05-10T03:16:15;8.40;;;2.53;;
74267;SDS011;62638;51.362;12.472;2023-05-10T03:19:06;4.25;;;2.17;;
74267;SDS011;62638;51.362;12.472;2023-05-10T03:21:41;2.95;;;1.95;;
74267;SDS011;62638;51.362;12.472;2023-05-10T03:24:12;5.45;;;2.28;;
74267;SDS011;62638;51.362;12.472;2023-05-10T03:29:08;3.15;;;1.83;;
74267;SDS011;62638;51.362;12.472;2023-05-10T03:31:33;3.42;;;1.55;;
74267;SDS011;62638;51.362;12.472;2023-05-10T03:33:59;3.67;;;2.03;;
74267;SDS011;62638;51.362;12.472;2023-05-10T03:36:24;4.10;;;2.10;;
74267;SDS011;62638;51.362;12.472;2023-05-10T03:38:50;4.27;;;1.70;;
74267;SDS011;62638;51.362;12.472;2023-05-10T03:41:15;3.90;;;2.03;;
74267;SDS011;62638;51.362;12.472;2023-05-10T03:43:40;4.30;;;1.73;;
74267;SDS011;62638;51.362;12.472;2023-05-10T03:46:06;3.88;;;2.22;;
74267;SDS011;62638;51.362;12.472;2023-05-10T03:48:32;3.77;;;1.70;;
74267;SDS011;62638;51.362;12.472;2023-05-10T03:50:57;4.75;;;2.28;;
74267;SDS011;62638;51.362;12.472;2023-05-10T03:53:22;4.20;;;2.00;;
74267;SDS011;62638;51.362;12.472;2023-05-10T03:55:48;4.72;;;2.00;;
74267;SDS011;62638;51.362;12.472;2023-05-10T03:58:13;3.53;;;1.80;;
74267;SDS011;62638;51.362;12.472;2023-05-10T04:00:38;4.72;;;2.42;;
74267;SDS011;62638;51.362;12.472;2023-05-10T04:03:08;3.40;;;2.10;;
74267;SDS011;62638;51.362;12.472;2023-05-10T04:05:34;6.28;;;2.10;;
74267;SDS011;62638;51.362;12.472;2023-05-10T04:07:59;3.08;;;1.73;;
74267;SDS011;62638;51.362;12.472;2023-05-10T04:10:25;3.93;;;1.90;;
74267;SDS011;62638;51.362;12.472;2023-05-10T04:12:50;5.97;;;1.70;;
74267;SDS011;62638;51.362;12.472;2023-05-10T04:15:15;4.25;;;1.80;;
74267;SDS011;62638;51.362;12.472;2023-05-10T04:17:41;4.05;;;1.95;;
74267;SDS011;62638;51.362;12.472;2023-05-10T04:20:06;4.40;;;2.20;;
74267;SDS011;62638;51.362;12.472;2023-05-10T04:22:32;4.35;;;2.25;;
74267;SDS011;62638;51.362;12.472;2023-05-10T04:24:57;3.27;;;1.63;;
74267;SDS011;62638;51.362;12.472;2023-05-10T04:27:23;4.68;;;2.47;;
74267;SDS011;62638;51.362;12.472;2023-05-10T04:29:48;5.63;;;2.25;;
74267;SDS011;62638;51.362;12.472;2023-05-10T04:32:13;2.60;;;1.50;;
74267;SDS011;62638;51.362;12.472;2023-05-10T04:34:41;4.20;;;2.03;;
74267;SDS011;62638;51.362;12.472;2023-05-10T04:37:06;4.23;;;1.70;;
74267;SDS011;62638;51.362;12.472;2023-05-10T04:39:32;4.15;;;2.05;;
74267;SDS011;62638;51.362;12.472;2023-05-10T04:41:57;3.27;;;2.03;;
74267;SDS011;62638;51.362;12.472;2023-05-10T04:44:22;4.93;;;2.57;;
74267;SDS011;62638;51.362;12.472;2023-05-10T04:46:48;7.37;;;1.83;;
74267;SDS011;62638;51.362;12.472;2023-05-10T04:49:13;3.57;;;1.77;;
74267;SDS011;62638;51.362;12.472;2023-05-10T04:51:39;3.70;;;1.77;;
74267;SDS011;62638;51.362;12.472;2023-05-10T04:54:04;4.15;;;2.28;;
74267;SDS011;62638;51.362;12.472;2023-05-10T04:56:29;3.70;;;2.10;;
74267;SDS011;62638;51.362;12.472;2023-05-10T04:58:55;3.63;;;1.80;;
74267;SDS011;62638;51.362;12.472;2023-05-10T05:01:20;6.37;;;2.07;;
74267;SDS011;62638;51.362;12.472;2023-05-10T05:03:45;3.43;;;1.70;;
74267;SDS011;62638;51.362;12.472;2023-05-10T05:06:11;4.20;;;2.00;;
74267;SDS011;62638;51.362;12.472;2023-05-10T05:08:36;5.03;;;1.93;;
74267;SDS011;62638;51.362;12.472;2023-05-10T05:11:01;4.77;;;2.20;;
74267;SDS011;62638;51.362;12.472;2023-05-10T05:13:26;4.20;;;1.80;;
74267;SDS011;62638;51.362;12.472;2023-05-10T05:15:52;2.95;;;2.08;;
74267;SDS011;62638;51.362;12.472;2023-05-10T05:18:18;6.38;;;2.00;;
74267;SDS011;62638;51.362;12.472;2023-05-10T05:20:43;2.97;;;1.73;;
74267;SDS011;62638;51.362;12.472;2023-05-10T05:23:08;4.73;;;2.17;;
74267;SDS011;62638;51.362;12.472;2023-05-10T05:25:34;4.73;;;2.13;;
74267;SDS011;62638;51.362;12.472;2023-05-10T05:27:59;5.47;;;1.90;;
74267;SDS011;62638;51.362;12.472;2023-05-10T05:30:24;3.22;;;1.75;;
74267;SDS011;62638;51.362;12.472;2023-05-10T05:32:49;4.27;;;1.80;;
74267;SDS011;62638;51.362;12.472;2023-05-10T05:35:15;3.43;;;1.77;;
74267;SDS011;62638;51.362;12.472;2023-05-10T05:37:40;3.70;;;1.90;;
74267;SDS011;62638;51.362;12.472;2023-05-10T05:40:05;4.60;;;1.93;;
74267;SDS011;62638;51.362;12.472;2023-05-10T05:42:31;7.80;;;2.22;;
74267;SDS011;62638;51.362;12.472;2023-05-10T05:44:56;5.28;;;2.08;;
74267;SDS011;62638;51.362;12.472;2023-05-10T05:47:22;4.25;;;2.33;;
74267;SDS011;62638;51.362;12.472;2023-05-10T05:49:47;5.82;;;1.83;;
74267;SDS011;62638;51.362;12.472;2023-05-10T05:52:12;3.17;;;1.90;;
74267;SDS011;62638;51.362;12.472;2023-05-10T05:54:38;4.18;;;1.65;;
74267;SDS011;62638;51.362;12.472;2023-05-10T05:57:03;3.95;;;1.80;;
74267;SDS011;62638;51.362;12.472;2023-05-10T05:59:29;2.95;;;1.98;;
74267;SDS011;62638;51.362;12.472;2023-05-10T06:01:54;2.70;;;1.35;;
74267;SDS011;62638;51.362;12.472;2023-05-10T06:04:19;3.33;;;2.00;;
74267;SDS011;62638;51.362;12.472;2023-05-10T06:06:44;3.20;;;1.87;;
74267;SDS011;62638;51.362;12.472;2023-05-10T06:09:10;2.85;;;1.60;;
74267;SDS011;62638;51.362;12.472;2023-05-10T06:11:36;2.58;;;1.63;;
74267;SDS011;62638;51.362;12.472;2023-05-10T06:14:01;3.92;;;2.20;;
74267;SDS011;62638;51.362;12.472;2023-05-10T06:18:54;3.30;;;1.93;;
74267;SDS011;62638;51.362;12.472;2023-05-10T06:21:20;3.38;;;1.77;;
74267;SDS011;62638;51.362;12.472;2023-05-10T06:23:45;4.57;;;1.90;;
74267;SDS011;62638;51.362;12.472;2023-05-10T06:26:10;2.60;;;1.43;;
74267;SDS011;62638;51.362;12.472;2023-05-10T06:28:36;3.65;;;1.90;;
74267;SDS011;62638;51.362;12.472;2023-05-10T06:33:29;4.13;;;2.00;;
74267;SDS011;62638;51.362;12.472;2023-05-10T06:35:54;3.65;;;2.08;;
74267;SDS011;62638;51.362;12.472;2023-05-10T06:38:20;3.80;;;1.73;;
74267;SDS011;62638;51.362;12.472;2023-05-10T06:40:46;2.30;;;1.23;;
74267;SDS011;62638;51.362;12.472;2023-05-10T06:43:11;3.67;;;1.83;;
74267;SDS011;62638;51.362;12.472;2023-05-10T06:45:36;3.67;;;1.75;;
74267;SDS011;62638;51.362;12.472;2023-05-10T06:48:02;3.50;;;1.90;;
74267;SDS011;62638;51.362;12.472;2023-05-10T06:50:27;3.42;;;1.83;;
74267;SDS011;62638;51.362;12.472;2023-05-10T06:52:52;5.00;;;1.73;;
74267;SDS011;62638;51.362;12.472;2023-05-10T06:55:18;5.07;;;2.10;;
74267;SDS011;62638;51.362;12.472;2023-05-10T06:57:43;2.83;;;1.88;;
74267;SDS011;62638;51.362;12.472;2023-05-10T07:00:08;4.47;;;2.00;;
74267;SDS011;62638;51.362;12.472;2023-05-10T07:02:35;5.22;;;1.85;;
74267;SDS011;62638;51.362;12.472;2023-05-10T07:05:00;2.65;;;1.60;;
74267;SDS011;62638;51.362;12.472;2023-05-10T07:07:26;5.50;;;1.92;;
74267;SDS011;62638;51.362;12.472;2023-05-10T07:09:51;3.53;;;1.87;;
74267;SDS011;62638;51.362;12.472;2023-05-10T07:12:16;3.00;;;2.03;;
74267;SDS011;62638;51.362;12.472;2023-05-10T07:14:42;3.65;;;2.25;;
74267;SDS011;62638;51.362;12.472;2023-05-10T07:17:07;5.13;;;2.53;;
74267;SDS011;62638;51.362;12.472;2023-05-10T07:19:33;3.88;;;2.30;;
74267;SDS011;62638;51.362;12.472;2023-05-10T07:21:58;2.65;;;1.65;;
74267;SDS011;62638;51.362;12.472;2023-05-10T07:24:23;3.43;;;2.07;;
74267;SDS011;62638;51.362;12.472;2023-05-10T07:26:49;3.15;;;1.85;;
74267;SDS011;62638;51.362;12.472;2023-05-10T07:29:14;2.85;;;1.77;;
74267;SDS011;62638;51.362;12.472;2023-05-10T07:31:39;4.27;;;2.20;;
74267;SDS011;62638;51.362;12.472;2023-05-10T07:34:06;3.60;;;2.13;;
74267;SDS011;62638;51.362;12.472;2023-05-10T07:36:32;2.83;;;1.75;;
74267;SDS011;62638;51.362;12.472;2023-05-10T07:38:57;3.97;;;1.63;;
74267;SDS011;62638;51.362;12.472;2023-05-10T07:41:22;2.67;;;1.50;;
74267;SDS011;62638;51.362;12.472;2023-05-10T07:43:48;2.80;;;1.70;;
74267;SDS011;62638;51.362;12.472;2023-05-10T07:46:13;3.40;;;1.80;;
74267;SDS011;62638;51.362;12.472;2023-05-10T07:48:38;2.77;;;1.37;;
74267;SDS011;62638;51.362;12.472;2023-05-10T07:51:04;3.42;;;2.20;;
74267;SDS011;62638;51.362;12.472;2023-05-10T07:53:31;3.15;;;1.83;;
74267;SDS011;62638;51.362;12.472;2023-05-10T07:55:57;5.72;;;2.03;;
74267;SDS011;62638;51.362;12.472;2023-05-10T07:58:23;3.63;;;2.10;;
74267;SDS011;62638;51.362;12.472;2023-05-10T08:00:48;4.65;;;2.22;;
74267;SDS011;62638;51.362;12.472;2023-05-10T08:03:14;3.42;;;2.00;;
74267;SDS011;62638;51.362;12.472;2023-05-10T08:05:39;3.00;;;1.63;;
74267;SDS011;62638;51.362;12.472;2023-05-10T08:08:05;3.08;;;1.83;;
74267;SDS011;62638;51.362;12.472;2023-05-10T08:10:30;3.40;;;1.93;;
74267;SDS011;62638;51.362;12.472;2023-05-10T08:12:56;3.05;;;2.00;;
74267;SDS011;62638;51.362;12.472;2023-05-10T08:15:23;2.47;;;1.63;;
74267;SDS011;62638;51.362;12.472;2023-05-10T08:17:48;3.03;;;1.55;;
74267;SDS011;62638;51.362;12.472;2023-05-10T08:20:14;4.18;;;1.70;;
74267;SDS011;62638;51.362;12.472;2023-05-10T08:22:41;10.68;;;2.40;;
74267;SDS011;62638;51.362;12.472;2023-05-10T08:25:07;2.35;;;1.33;;
74267;SDS011;62638;51.362;12.472;2023-05-10T08:27:32;4.28;;;1.95;;
74267;SDS011;62638;51.362;12.472;2023-05-10T08:29:57;3.60;;;2.20;;
74267;SDS011;62638;51.362;12.472;2023-05-10T08:32:23;3.20;;;2.17;;
74267;SDS011;62638;51.362;12.472;2023-05-10T08:34:48;4.40;;;1.70;;
74267;SDS011;62638;51.362;12.472;2023-05-10T08:37:13;4.83;;;2.00;;
74267;SDS011;62638;51.362;12.472;2023-05-10T08:39:39;5.53;;;2.40;;
74267;SDS011;62638;51.362;12.472;2023-05-10T08:42:04;6.35;;;2.10;;
74267;SDS011;62638;51.362;12.472;2023-05-10T08:44:34;5.13;;;2.30;;
74267;SDS011;62638;51.362;12.472;2023-05-10T08:47:05;4.93;;;2.22;;
74267;SDS011;62638;51.362;12.472;2023-05-10T08:49:32;6.55;;;2.85;;
74267;SDS011;62638;51.362;12.472;2023-05-10T08:51:57;6.15;;;2.88;;
74267;SDS011;62638;51.362;12.472;2023-05-10T08:54:26;10.65;;;2.50;;
74267;SDS011;62638;51.362;12.472;2023-05-10T08:56:52;3.53;;;2.20;;
74267;SDS011;62638;51.362;12.472;2023-05-10T08:59:18;3.72;;;2.75;;
74267;SDS011;62638;51.362;12.472;2023-05-10T09:01:44;3.47;;;1.88;;
74267;SDS011;62638;51.362;12.472;2023-05-10T09:04:10;4.32;;;2.50;;
74267;SDS011;62638;51.362;12.472;2023-05-10T09:06:36;6.38;;;2.60;;
74267;SDS011;62638;51.362;12.472;2023-05-10T09:09:02;4.18;;;2.15;;
74267;SDS011;62638;51.362;12.472;2023-05-10T09:11:28;5.07;;;2.28;;
74267;SDS011;62638;51.362;12.472;2023-05-10T09:13:55;4.10;;;2.60;;
74267;SDS011;62638;51.362;12.472;2023-05-10T09:16:21;6.88;;;2.50;;
74267;SDS011;62638;51.362;12.472;2023-05-10T09:18:47;5.57;;;2.42;;
74267;SDS011;62638;51.362;12.472;2023-05-10T09:21:12;8.98;;;3.08;;
74267;SDS011;62638;51.362;12.472;2023-05-10T09:23:38;4.40;;;2.95;;
74267;SDS011;62638;51.362;12.472;2023-05-10T09:26:08;4.10;;;2.75;;
74267;SDS011;62638;51.362;12.472;2023-05-10T09:28:34;2.85;;;1.83;;
74267;SDS011;62638;51.362;12.472;2023-05-10T09:31:14;3.92;;;2.40;;
74267;SDS011;62638;51.362;12.472;2023-05-10T09:33:46;3.88;;;2.45;;
74267;SDS011;62638;51.362;12.472;2023-05-10T09:36:13;4.63;;;2.50;;
74267;SDS011;62638;51.362;12.472;2023-05-10T09:38:49;6.32;;;3.05;;
74267;SDS011;62638;51.362;12.472;2023-05-10T09:41:20;3.65;;;2.38;;
74267;SDS011;62638;51.362;12.472;2023-05-10T09:43:47;4.88;;;2.75;;
74267;SDS011;62638;51.362;12.472;2023-05-10T09:46:13;4.90;;;2.65;;
74267;SDS011;62638;51.362;12.472;2023-05-10T09:48:43;4.32;;;2.50;;
74267;SDS011;62638;51.362;12.472;2023-05-10T09:51:10;5.10;;;2.40;;
74267;SDS011;62638;51.362;12.472;2023-05-10T09:53:36;4.85;;;2.78;;
74267;SDS011;62638;51.362;12.472;2023-05-10T09:56:01;6.05;;;3.13;;
74267;SDS011;62638;51.362;12.472;2023-05-10T09:58:26;5.55;;;3.10;;
74267;SDS011;62638;51.362;12.472;2023-05-10T10:00:52;7.22;;;3.58;;
74267;SDS011;62638;51.362;12.472;2023-05-10T10:03:19;9.52;;;4.30;;
74267;SDS011;62638;51.362;12.472;2023-05-10T10:05:46;6.90;;;4.07;;
74267;SDS011;62638;51.362;12.472;2023-05-10T10:08:13;6.50;;;3.80;;
74267;SDS011;62638;51.362;12.472;2023-05-10T10:10:39;7.63;;;3.42;;
74267;SDS011;62638;51.362;12.472;2023-05-10T10:13:05;6.93;;;3.42;;
74267;SDS011;62638;51.362;12.472;2023-05-10T10:15:32;6.85;;;3.90;;
74267;SDS011;62638;51.362;12.472;2023-05-10T10:17:59;7.57;;;4.07;;
74267;SDS011;62638;51.362;12.472;2023-05-10T10:20:25;8.50;;;4.57;;
74267;SDS011;62638;51.362;12.472;2023-05-10T10:22:51;7.93;;;3.90;;
74267;SDS011;62638;51.362;12.472;2023-05-10T10:25:16;9.77;;;3.72;;
74267;SDS011;62638;51.362;12.472;2023-05-10T10:27:45;7.35;;;3.58;;
74267;SDS011;62638;51.362;12.472;2023-05-10T10:30:19;10.05;;;4.15;;
74267;SDS011;62638;51.362;12.472;2023-05-10T10:35:53;5.75;;;3.17;;
74267;SDS011;62638;51.362;12.472;2023-05-10T10:38:20;6.75;;;3.60;;
74267;SDS011;62638;51.362;12.472;2023-05-10T10:40:46;7.40;;;4.13;;
74267;SDS011;62638;51.362;12.472;2023-05-10T10:43:28;7.45;;;4.38;;
74267;SDS011;62638;51.362;12.472;2023-05-10T10:48:38;6.47;;;3.65;;
74267;SDS011;62638;51.362;12.472;2023-05-10T10:51:04;5.90;;;4.10;;
74267;SDS011;62638;51.362;12.472;2023-05-10T10:53:30;5.97;;;3.53;;
74267;SDS011;62638;51.362;12.472;2023-05-10T10:56:11;9.00;;;3.90;;
74267;SDS011;62638;51.362;12.472;2023-05-10T10:58:38;5.07;;;3.42;;
74267;SDS011;62638;51.362;12.472;2023-05-10T11:03:38;6.10;;;3.78;;
74267;SDS011;62638;51.362;12.472;2023-05-10T11:06:04;8.30;;;4.38;;
74267;SDS011;62638;51.362;12.472;2023-05-10T11:08:32;10.85;;;4.75;;
74267;SDS011;62638;51.362;12.472;2023-05-10T11:13:32;11.03;;;4.80;;
74267;SDS011;62638;51.362;12.472;2023-05-10T11:16:09;7.03;;;3.95;;
74267;SDS011;62638;51.362;12.472;2023-05-10T11:18:38;7.93;;;4.53;;
74267;SDS011;62638;51.362;12.472;2023-05-10T11:21:03;9.43;;;4.38;;
74267;SDS011;62638;51.362;12.472;2023-05-10T11:26:07;6.70;;;4.00;;
74267;SDS011;62638;51.362;12.472;2023-05-10T11:28:34;8.55;;;4.38;;
74267;SDS011;62638;51.362;12.472;2023-05-10T11:31:00;8.63;;;3.97;;
74267;SDS011;62638;51.362;12.472;2023-05-10T11:33:25;6.72;;;3.72;;
74267;SDS011;62638;51.362;12.472;2023-05-10T11:35:50;6.40;;;4.17;;
74267;SDS011;62638;51.362;12.472;2023-05-10T11:38:16;12.30;;;4.43;;
74267;SDS011;62638;51.362;12.472;2023-05-10T11:40:41;9.30;;;4.35;;
74267;SDS011;62638;51.362;12.472;2023-05-10T11:43:08;7.13;;;4.13;;
74267;SDS011;62638;51.362;12.472;2023-05-10T11:48:01;7.05;;;3.72;;
74267;SDS011;62638;51.362;12.472;2023-05-10T11:50:27;7.35;;;4.78;;
74267;SDS011;62638;51.362;12.472;2023-05-10T11:52:53;8.88;;;4.55;;
74267;SDS011;62638;51.362;12.472;2023-05-10T11:55:20;8.60;;;4.50;;
74267;SDS011;62638;51.362;12.472;2023-05-10T11:57:46;8.40;;;4.43;;
74267;SDS011;62638;51.362;12.472;2023-05-10T12:00:11;9.38;;;5.03;;
74267;SDS011;62638;51.362;12.472;2023-05-10T12:02:38;8.05;;;4.43;;
74267;SDS011;62638;51.362;12.472;2023-05-10T12:05:04;10.90;;;5.05;;
74267;SDS011;62638;51.362;12.472;2023-05-10T12:07:30;9.73;;;5.30;;
74267;SDS011;62638;51.362;12.472;2023-05-10T12:10:09;10.50;;;5.15;;
74267;SDS011;62638;51.362;12.472;2023-05-10T12:12:44;10.38;;;5.20;;
74267;SDS011;62638;51.362;12.472;2023-05-10T12:15:17;10.00;;;5.45;;
74267;SDS011;62638;51.362;12.472;2023-05-10T12:17:44;13.38;;;6.72;;
74267;SDS011;62638;51.362;12.472;2023-05-10T12:20:14;13.35;;;6.15;;
74267;SDS011;62638;51.362;12.472;2023-05-10T12:22:53;14.23;;;6.85;;
74267;SDS011;62638;51.362;12.472;2023-05-10T12:25:21;12.13;;;6.63;;
74267;SDS011;62638;51.362;12.472;2023-05-10T12:27:51;13.68;;;6.00;;
74267;SDS011;62638;51.362;12.472;2023-05-10T12:30:19;10.65;;;6.03;;
74267;SDS011;62638;51.362;12.472;2023-05-10T12:32:46;10.18;;;4.95;;
74267;SDS011;62638;51.362;12.472;2023-05-10T12:35:14;13.20;;;5.80;;
74267;SDS011;62638;51.362;12.472;2023-05-10T12:37:41;9.88;;;6.10;;
74267;SDS011;62638;51.362;12.472;2023-05-10T12:40:08;6.95;;;4.82;;
74267;SDS011;62638;51.362;12.472;2023-05-10T12:42:35;8.63;;;4.60;;
74267;SDS011;62638;51.362;12.472;2023-05-10T12:45:01;8.50;;;5.55;;
74267;SDS011;62638;51.362;12.472;2023-05-10T12:47:27;8.95;;;4.88;;
74267;SDS011;62638;51.362;12.472;2023-05-10T12:49:53;13.30;;;6.60;;
74267;SDS011;62638;51.362;12.472;2023-05-10T12:52:18;10.40;;;5.73;;
74267;SDS011;62638;51.362;12.472;2023-05-10T12:54:43;9.20;;;5.00;;
74267;SDS011;62638;51.362;12.472;2023-05-10T12:57:08;11.13;;;5.97;;
74267;SDS011;62638;51.362;12.472;2023-05-10T12:59:34;10.00;;;6.13;;
74267;SDS011;62638;51.362;12.472;2023-05-10T13:01:59;8.98;;;4.85;;
74267;SDS011;62638;51.362;12.472;2023-05-10T13:04:24;10.35;;;4.50;;
74267;SDS011;62638;51.362;12.472;2023-05-10T13:06:50;11.30;;;6.07;;
74267;SDS011;62638;51.362;12.472;2023-05-10T13:09:15;9.32;;;5.35;;
74267;SDS011;62638;51.362;12.472;2023-05-10T13:11:41;9.73;;;5.67;;
74267;SDS011;62638;51.362;12.472;2023-05-10T13:14:06;8.00;;;4.50;;
74267;SDS011;62638;51.362;12.472;2023-05-10T13:16:32;7.43;;;4.85;;
74267;SDS011;62638;51.362;12.472;2023-05-10T13:18:57;7.07;;;4.57;;
74267;SDS011;62638;51.362;12.472;2023-05-10T13:21:23;7.68;;;5.00;;
74267;SDS011;62638;51.362;12.472;2023-05-10T13:23:49;6.97;;;4.15;;
74267;SDS011;62638;51.362;12.472;2023-05-10T13:26:15;8.55;;;4.30;;
74267;SDS011;62638;51.362;12.472;2023-05-10T13:28:40;6.23;;;3.77;;
74267;SDS011;62638;51.362;12.472;2023-05-10T13:31:05;7.88;;;4.60;;
74267;SDS011;62638;51.362;12.472;2023-05-10T13:33:31;7.83;;;4.43;;
74267;SDS011;62638;51.362;12.472;2023-05-10T13:35:56;9.83;;;4.97;;
74267;SDS011;62638;51.362;12.472;2023-05-10T13:38:21;7.73;;;4.47;;
74267;SDS011;62638;51.362;12.472;2023-05-10T13:40:46;8.40;;;4.80;;
74267;SDS011;62638;51.362;12.472;2023-05-10T13:43:12;7.22;;;4.20;;
74267;SDS011;62638;51.362;12.472;2023-05-10T13:45:37;6.53;;;4.05;;
74267;SDS011;62638;51.362;12.472;2023-05-10T13:48:03;7.18;;;3.55;;
74267;SDS011;62638;51.362;12.472;2023-05-10T13:50:29;4.70;;;3.33;;
74267;SDS011;62638;51.362;12.472;2023-05-10T13:52:55;6.55;;;4.00;;
74267;SDS011;62638;51.362;12.472;2023-05-10T13:55:20;5.85;;;4.00;;
74267;SDS011;62638;51.362;12.472;2023-05-10T13:57:45;5.70;;;3.40;;
74267;SDS011;62638;51.362;12.472;2023-05-10T14:00:11;4.57;;;3.20;;
74267;SDS011;62638;51.362;12.472;2023-05-10T14:02:37;4.43;;;2.90;;
74267;SDS011;62638;51.362;12.472;2023-05-10T14:05:02;5.53;;;3.40;;
74267;SDS011;62638;51.362;12.472;2023-05-10T14:07:27;5.78;;;3.17;;
74267;SDS011;62638;51.362;12.472;2023-05-10T14:09:53;5.47;;;3.10;;
74267;SDS011;62638;51.362;12.472;2023-05-10T14:12:18;5.03;;;2.80;;
74267;SDS011;62638;51.362;12.472;2023-05-10T14:14:43;5.13;;;2.90;;
74267;SDS011;62638;51.362;12.472;2023-05-10T14:17:09;5.03;;;2.77;;
74267;SDS011;62638;51.362;12.472;2023-05-10T14:19:34;4.53;;;2.80;;
74267;SDS011;62638;51.362;12.472;2023-05-10T14:21:59;5.37;;;2.73;;
74267;SDS011;62638;51.362;12.472;2023-05-10T14:24:25;4.10;;;2.78;;
74267;SDS011;62638;51.362;12.472;2023-05-10T14:26:50;3.97;;;2.42;;
74267;SDS011;62638;51.362;12.472;2023-05-10T14:29:18;4.28;;;2.47;;
74267;SDS011;62638;51.362;12.472;2023-05-10T14:31:44;3.15;;;2.20;;
74267;SDS011;62638;51.362;12.472;2023-05-10T14:34:09;2.90;;;1.90;;
74267;SDS011;62638;51.362;12.472;2023-05-10T14:36:34;4.25;;;2.00;;
74267;SDS011;62638;51.362;12.472;2023-05-10T14:39:00;3.80;;;2.20;;
74267;SDS011;62638;51.362;12.472;2023-05-10T14:41:25;5.50;;;2.60;;
74267;SDS011;62638;51.362;12.472;2023-05-10T14:43:50;3.90;;;1.80;;
74267;SDS011;62638;51.362;12.472;2023-05-10T14:46:16;2.72;;;1.83;;
74267;SDS011;62638;51.362;12.472;2023-05-10T14:48:41;3.88;;;2.40;;
74267;SDS011;62638;51.362;12.472;2023-05-10T14:51:07;3.78;;;2.00;;
74267;SDS011;62638;51.362;12.472;2023-05-10T14:53:32;3.45;;;2.50;;
74267;SDS011;62638;51.362;12.472;2023-05-10T14:55:57;3.30;;;2.00;;
74267;SDS011;62638;51.362;12.472;2023-05-10T14:58:23;3.03;;;1.80;;
74267;SDS011;62638;51.362;12.472;2023-05-10T15:00:48;3.53;;;2.00;;